sensor_id;sensor_type;location;lat;lon;timestamp;pressure;altitude;pressure_sealevel;temperature;humidity
76124;BME280;65173;48.066;20.976;2023-07-29T00:00:19;99944.59;;;18.94;100.00
76124;BME280;65173;48.066;20.976;2023-07-29T00:03:22;99947.72;;;18.99;100.00
76124;BME280;65173;48.066;20.976;2023-07-29T00:06:26;99948.06;;;18.91;100.00
76124;BME280;65173;48.066;20.976;2023-07-29T00:09:29;99946.84;;;18.85;100.00
76124;BME280;65173;48.066;20.976;2023-07-29T00:12:32;99944.53;;;18.80;100.00
76124;BME280;65173;48.066;20.976;2023-07-29T00:15:35;99950.69;;;18.80;100.00
76124;BME280;65173;48.066;20.976;2023-07-29T00:18:38;99948.00;;;18.84;100.00
76124;BME280;65173;48.066;20.976;2023-07-29T00:21:40;99941.47;;;18.88;100.00
76124;BME280;65173;48.066;20.976;2023-07-29T00:24:43;99941.03;;;18.83;100.00
76124;BME280;65173;48.066;20.976;2023-07-29T00:27:46;99949.88;;;18.72;100.00
76124;BME280;65173;48.066;20.976;2023-07-29T00:30:49;99943.34;;;18.77;100.00
76124;BME280;65173;48.066;20.976;2023-07-29T00:33:52;99948.69;;;18.70;100.00
76124;BME280;65173;48.066;20.976;2023-07-29T00:36:55;99938.66;;;18.70;100.00
76124;BME280;65173;48.066;20.976;2023-07-29T00:39:58;99930.56;;;18.70;100.00
76124;BME280;65173;48.066;20.976;2023-07-29T00:43:01;99946.75;;;18.70;100.00
76124;BME280;65173;48.066;20.976;2023-07-29T00:46:04;99950.72;;;18.87;100.00
76124;BME280;65173;48.066;20.976;2023-07-29T00:49:07;99955.25;;;18.72;100.00
76124;BME280;65173;48.066;20.976;2023-07-29T00:52:10;99952.56;;;18.72;100.00
76124;BME280;65173;48.066;20.976;2023-07-29T00:55:15;99944.44;;;18.69;100.00
76124;BME280;65173;48.066;20.976;2023-07-29T00:58:19;99942.84;;;18.64;100.00
76124;BME280;65173;48.066;20.976;2023-07-29T01:01:22;99933.31;;;18.78;100.00
76124;BME280;65173;48.066;20.976;2023-07-29T01:04:25;99933.91;;;18.57;100.00
76124;BME280;65173;48.066;20.976;2023-07-29T01:10:39;99927.06;;;18.66;100.00
76124;BME280;65173;48.066;20.976;2023-07-29T01:17:02;99933.13;;;18.56;100.00
76124;BME280;65173;48.066;20.976;2023-07-29T01:20:09;99926.88;;;18.45;100.00
76124;BME280;65173;48.066;20.976;2023-07-29T01:23:13;99931.88;;;18.43;100.00
76124;BME280;65173;48.066;20.976;2023-07-29T01:26:18;99930.31;;;18.38;100.00
76124;BME280;65173;48.066;20.976;2023-07-29T01:29:20;99940.22;;;18.24;100.00
76124;BME280;65173;48.066;20.976;2023-07-29T01:35:52;99936.06;;;18.37;100.00
76124;BME280;65173;48.066;20.976;2023-07-29T01:38:57;99943.06;;;18.01;100.00
76124;BME280;65173;48.066;20.976;2023-07-29T01:42:01;99938.59;;;18.16;100.00
76124;BME280;65173;48.066;20.976;2023-07-29T01:45:05;99940.91;;;17.47;100.00
76124;BME280;65173;48.066;20.976;2023-07-29T01:48:08;99941.22;;;17.42;100.00
76124;BME280;65173;48.066;20.976;2023-07-29T01:51:11;99945.44;;;17.39;100.00
76124;BME280;65173;48.066;20.976;2023-07-29T01:54:14;99934.78;;;17.50;100.00
76124;BME280;65173;48.066;20.976;2023-07-29T01:57:17;99930.00;;;17.66;100.00
76124;BME280;65173;48.066;20.976;2023-07-29T02:00:21;99933.53;;;17.74;100.00
76124;BME280;65173;48.066;20.976;2023-07-29T02:03:24;99922.28;;;17.64;100.00
76124;BME280;65173;48.066;20.976;2023-07-29T02:06:27;99930.47;;;17.72;100.00
76124;BME280;65173;48.066;20.976;2023-07-29T02:09:30;99932.38;;;17.41;100.00
76124;BME280;65173;48.066;20.976;2023-07-29T02:12:33;99941.22;;;17.42;100.00
76124;BME280;65173;48.066;20.976;2023-07-29T02:15:36;99941.03;;;17.57;100.00
76124;BME280;65173;48.066;20.976;2023-07-29T02:18:39;99936.53;;;17.65;100.00
76124;BME280;65173;48.066;20.976;2023-07-29T02:21:42;99937.78;;;17.71;100.00
76124;BME280;65173;48.066;20.976;2023-07-29T02:24:45;99939.31;;;17.72;100.00
76124;BME280;65173;48.066;20.976;2023-07-29T02:27:48;99938.97;;;17.77;100.00
76124;BME280;65173;48.066;20.976;2023-07-29T02:31:09;99943.66;;;17.84;100.00
76124;BME280;65173;48.066;20.976;2023-07-29T02:34:14;99946.31;;;17.80;100.00
76124;BME280;65173;48.066;20.976;2023-07-29T02:37:17;99952.47;;;17.17;100.00
76124;BME280;65173;48.066;20.976;2023-07-29T02:40:19;99950.63;;;17.25;100.00
76124;BME280;65173;48.066;20.976;2023-07-29T02:43:23;99944.25;;;17.37;100.00
76124;BME280;65173;48.066;20.976;2023-07-29T02:46:26;99938.28;;;17.50;100.00
76124;BME280;65173;48.066;20.976;2023-07-29T02:49:29;99937.22;;;17.62;100.00
76124;BME280;65173;48.066;20.976;2023-07-29T02:52:32;99937.34;;;17.39;100.00
76124;BME280;65173;48.066;20.976;2023-07-29T02:55:34;99933.28;;;17.52;100.00
76124;BME280;65173;48.066;20.976;2023-07-29T02:58:37;99936.81;;;17.60;100.00
76124;BME280;65173;48.066;20.976;2023-07-29T03:01:40;99947.78;;;17.71;100.00
76124;BME280;65173;48.066;20.976;2023-07-29T03:04:43;99949.94;;;17.61;100.00
76124;BME280;65173;48.066;20.976;2023-07-29T03:07:45;99943.84;;;17.34;100.00
76124;BME280;65173;48.066;20.976;2023-07-29T03:10:48;99940.72;;;17.62;100.00
76124;BME280;65173;48.066;20.976;2023-07-29T03:13:51;99946.94;;;17.66;100.00
76124;BME280;65173;48.066;20.976;2023-07-29T03:16:54;99951.16;;;17.64;100.00
76124;BME280;65173;48.066;20.976;2023-07-29T03:19:57;99957.78;;;17.70;100.00
76124;BME280;65173;48.066;20.976;2023-07-29T03:23:00;99952.53;;;17.84;100.00
76124;BME280;65173;48.066;20.976;2023-07-29T03:26:03;99953.38;;;17.92;100.00
76124;BME280;65173;48.066;20.976;2023-07-29T03:29:13;99943.34;;;17.92;100.00
76124;BME280;65173;48.066;20.976;2023-07-29T03:32:15;99961.13;;;17.97;100.00
76124;BME280;65173;48.066;20.976;2023-07-29T03:35:18;99962.81;;;18.09;100.00
76124;BME280;65173;48.066;20.976;2023-07-29T03:38:21;99966.66;;;18.08;100.00
76124;BME280;65173;48.066;20.976;2023-07-29T03:41:24;99969.00;;;18.13;100.00
76124;BME280;65173;48.066;20.976;2023-07-29T03:44:27;99966.41;;;18.23;100.00
76124;BME280;65173;48.066;20.976;2023-07-29T03:47:30;99963.72;;;18.23;100.00
76124;BME280;65173;48.066;20.976;2023-07-29T03:50:35;99957.59;;;18.30;100.00
76124;BME280;65173;48.066;20.976;2023-07-29T03:53:38;99954.09;;;18.26;100.00
76124;BME280;65173;48.066;20.976;2023-07-29T03:56:40;99956.34;;;18.20;100.00
76124;BME280;65173;48.066;20.976;2023-07-29T03:59:43;99955.66;;;18.30;100.00
76124;BME280;65173;48.066;20.976;2023-07-29T04:02:47;99960.72;;;18.35;100.00
76124;BME280;65173;48.066;20.976;2023-07-29T04:05:50;99961.53;;;18.39;100.00
76124;BME280;65173;48.066;20.976;2023-07-29T04:08:53;99956.22;;;18.50;100.00
76124;BME280;65173;48.066;20.976;2023-07-29T04:11:56;99965.47;;;18.49;100.00
76124;BME280;65173;48.066;20.976;2023-07-29T04:14:59;99961.22;;;18.48;100.00
76124;BME280;65173;48.066;20.976;2023-07-29T04:18:01;99972.00;;;18.45;100.00
76124;BME280;65173;48.066;20.976;2023-07-29T04:21:04;99966.06;;;18.28;100.00
76124;BME280;65173;48.066;20.976;2023-07-29T04:24:07;99971.94;;;18.37;100.00
76124;BME280;65173;48.066;20.976;2023-07-29T04:27:10;99972.06;;;18.55;100.00
76124;BME280;65173;48.066;20.976;2023-07-29T04:30:13;99983.72;;;18.59;100.00
76124;BME280;65173;48.066;20.976;2023-07-29T04:33:15;99977.00;;;18.46;100.00
76124;BME280;65173;48.066;20.976;2023-07-29T04:36:18;99978.25;;;18.56;100.00
76124;BME280;65173;48.066;20.976;2023-07-29T04:39:21;99983.50;;;18.38;100.00
76124;BME280;65173;48.066;20.976;2023-07-29T04:42:24;99981.94;;;18.37;100.00
76124;BME280;65173;48.066;20.976;2023-07-29T04:45:30;100002.66;;;18.63;100.00
76124;BME280;65173;48.066;20.976;2023-07-29T04:48:33;100001.53;;;18.71;100.00
76124;BME280;65173;48.066;20.976;2023-07-29T04:51:35;99994.78;;;18.95;100.00
76124;BME280;65173;48.066;20.976;2023-07-29T04:54:40;100000.22;;;19.05;100.00
76124;BME280;65173;48.066;20.976;2023-07-29T04:57:42;99992.63;;;19.25;100.00
76124;BME280;65173;48.066;20.976;2023-07-29T05:00:48;100001.25;;;19.49;100.00
76124;BME280;65173;48.066;20.976;2023-07-29T05:03:50;100009.75;;;19.47;100.00
76124;BME280;65173;48.066;20.976;2023-07-29T05:06:54;100014.31;;;19.39;100.00
76124;BME280;65173;48.066;20.976;2023-07-29T05:09:57;100005.13;;;19.48;100.00
76124;BME280;65173;48.066;20.976;2023-07-29T05:12:59;99999.75;;;19.51;100.00
76124;BME280;65173;48.066;20.976;2023-07-29T05:16:02;100003.97;;;19.49;100.00
76124;BME280;65173;48.066;20.976;2023-07-29T05:19:05;100018.41;;;19.81;100.00
76124;BME280;65173;48.066;20.976;2023-07-29T05:22:08;100022.66;;;19.79;100.00
76124;BME280;65173;48.066;20.976;2023-07-29T05:25:11;100021.72;;;19.46;100.00
76124;BME280;65173;48.066;20.976;2023-07-29T05:28:13;100022.59;;;19.71;100.00
76124;BME280;65173;48.066;20.976;2023-07-29T05:31:16;100027.63;;;19.73;100.00
76124;BME280;65173;48.066;20.976;2023-07-29T05:34:19;100029.63;;;19.90;100.00
76124;BME280;65173;48.066;20.976;2023-07-29T05:37:22;100037.81;;;20.01;100.00
76124;BME280;65173;48.066;20.976;2023-07-29T05:40:25;100036.38;;;20.46;100.00
76124;BME280;65173;48.066;20.976;2023-07-29T05:43:28;100036.38;;;20.67;100.00
76124;BME280;65173;48.066;20.976;2023-07-29T05:46:30;100039.41;;;20.34;100.00
76124;BME280;65173;48.066;20.976;2023-07-29T05:49:34;100029.38;;;20.34;100.00
76124;BME280;65173;48.066;20.976;2023-07-29T05:52:36;100038.72;;;20.72;100.00
76124;BME280;65173;48.066;20.976;2023-07-29T05:55:39;100041.03;;;20.77;100.00
76124;BME280;65173;48.066;20.976;2023-07-29T05:58:42;100041.41;;;20.83;100.00
76124;BME280;65173;48.066;20.976;2023-07-29T06:01:45;100036.78;;;20.91;100.00
76124;BME280;65173;48.066;20.976;2023-07-29T06:04:48;100027.81;;;21.43;100.00
76124;BME280;65173;48.066;20.976;2023-07-29T06:07:50;100031.25;;;21.51;100.00
76124;BME280;65173;48.066;20.976;2023-07-29T06:10:53;100030.00;;;21.73;100.00
76124;BME280;65173;48.066;20.976;2023-07-29T06:13:56;100045.38;;;22.08;100.00
76124;BME280;65173;48.066;20.976;2023-07-29T06:16:59;100042.31;;;21.99;100.00
76124;BME280;65173;48.066;20.976;2023-07-29T06:20:04;100043.41;;;22.16;100.00
76124;BME280;65173;48.066;20.976;2023-07-29T06:23:08;100057.47;;;21.90;100.00
76124;BME280;65173;48.066;20.976;2023-07-29T06:26:11;100059.34;;;22.07;100.00
76124;BME280;65173;48.066;20.976;2023-07-29T06:29:13;100062.25;;;22.41;100.00
76124;BME280;65173;48.066;20.976;2023-07-29T06:32:16;100067.41;;;22.83;100.00
76124;BME280;65173;48.066;20.976;2023-07-29T06:35:19;100065.34;;;22.98;100.00
76124;BME280;65173;48.066;20.976;2023-07-29T06:38:22;100061.59;;;23.26;100.00
76124;BME280;65173;48.066;20.976;2023-07-29T06:41:25;100058.97;;;23.57;100.00
76124;BME280;65173;48.066;20.976;2023-07-29T06:44:28;100057.53;;;24.09;100.00
76124;BME280;65173;48.066;20.976;2023-07-29T06:47:30;100060.53;;;24.72;99.92
76124;BME280;65173;48.066;20.976;2023-07-29T06:50:33;100062.81;;;25.01;99.21
76124;BME280;65173;48.066;20.976;2023-07-29T06:53:36;100059.50;;;25.33;95.16
76124;BME280;65173;48.066;20.976;2023-07-29T06:56:39;100060.56;;;25.98;97.61
76124;BME280;65173;48.066;20.976;2023-07-29T06:59:42;100043.69;;;26.39;89.01
76124;BME280;65173;48.066;20.976;2023-07-29T07:02:45;100046.69;;;26.45;89.70
76124;BME280;65173;48.066;20.976;2023-07-29T07:05:48;100048.81;;;26.86;90.29
76124;BME280;65173;48.066;20.976;2023-07-29T07:08:51;100045.22;;;26.73;89.63
76124;BME280;65173;48.066;20.976;2023-07-29T07:11:54;100036.06;;;27.12;86.05
76124;BME280;65173;48.066;20.976;2023-07-29T07:14:56;100039.00;;;27.05;83.79
76124;BME280;65173;48.066;20.976;2023-07-29T07:17:59;100041.16;;;27.55;82.33
76124;BME280;65173;48.066;20.976;2023-07-29T07:21:02;100040.81;;;28.07;84.41
76124;BME280;65173;48.066;20.976;2023-07-29T07:24:05;100047.31;;;28.26;81.61
76124;BME280;65173;48.066;20.976;2023-07-29T07:27:08;100041.25;;;28.56;78.14
76124;BME280;65173;48.066;20.976;2023-07-29T07:30:11;100035.31;;;28.83;76.77
76124;BME280;65173;48.066;20.976;2023-07-29T07:33:14;100046.44;;;28.42;77.50
76124;BME280;65173;48.066;20.976;2023-07-29T07:36:17;100028.75;;;28.81;75.56
76124;BME280;65173;48.066;20.976;2023-07-29T07:39:20;100024.16;;;28.14;77.16
76124;BME280;65173;48.066;20.976;2023-07-29T07:42:22;100036.00;;;28.11;75.63
76124;BME280;65173;48.066;20.976;2023-07-29T07:45:25;100020.50;;;28.81;75.80
76124;BME280;65173;48.066;20.976;2023-07-29T07:48:28;100021.66;;;29.70;74.27
76124;BME280;65173;48.066;20.976;2023-07-29T07:51:31;100013.75;;;28.34;77.95
76124;BME280;65173;48.066;20.976;2023-07-29T07:54:34;100011.72;;;29.08;71.87
76124;BME280;65173;48.066;20.976;2023-07-29T07:57:37;100015.94;;;28.40;72.60
76124;BME280;65173;48.066;20.976;2023-07-29T08:00:40;100009.22;;;28.15;74.12
76124;BME280;65173;48.066;20.976;2023-07-29T08:03:42;100013.75;;;28.47;71.76
76124;BME280;65173;48.066;20.976;2023-07-29T08:06:45;100012.25;;;29.37;70.80
76124;BME280;65173;48.066;20.976;2023-07-29T08:09:48;100012.19;;;30.02;72.10
76124;BME280;65173;48.066;20.976;2023-07-29T08:12:51;99998.63;;;30.66;67.84
76124;BME280;65173;48.066;20.976;2023-07-29T08:15:54;99998.53;;;29.59;71.54
76124;BME280;65173;48.066;20.976;2023-07-29T08:18:56;100001.72;;;30.28;71.24
76124;BME280;65173;48.066;20.976;2023-07-29T08:21:59;99993.47;;;30.19;71.80
76124;BME280;65173;48.066;20.976;2023-07-29T08:25:02;99999.34;;;30.39;66.61
76124;BME280;65173;48.066;20.976;2023-07-29T08:28:05;100006.38;;;30.00;70.37
76124;BME280;65173;48.066;20.976;2023-07-29T08:31:07;100010.16;;;29.41;69.00
76124;BME280;65173;48.066;20.976;2023-07-29T08:34:11;100014.25;;;29.89;70.35
76124;BME280;65173;48.066;20.976;2023-07-29T08:37:13;100014.44;;;29.64;68.24
76124;BME280;65173;48.066;20.976;2023-07-29T08:40:16;100008.81;;;29.67;70.05
76124;BME280;65173;48.066;20.976;2023-07-29T08:43:20;100014.78;;;29.75;72.33
76124;BME280;65173;48.066;20.976;2023-07-29T08:46:26;100009.66;;;31.03;66.36
76124;BME280;65173;48.066;20.976;2023-07-29T08:49:29;100005.22;;;30.60;65.10
76124;BME280;65173;48.066;20.976;2023-07-29T08:52:33;100004.84;;;30.39;64.26
76124;BME280;65173;48.066;20.976;2023-07-29T08:55:38;100010.72;;;29.36;68.12
76124;BME280;65173;48.066;20.976;2023-07-29T08:58:41;100013.00;;;29.81;67.74
76124;BME280;65173;48.066;20.976;2023-07-29T09:01:45;100000.31;;;31.00;64.14
76124;BME280;65173;48.066;20.976;2023-07-29T09:04:48;99997.47;;;32.16;59.69
76124;BME280;65173;48.066;20.976;2023-07-29T09:07:52;99992.41;;;32.47;56.34
76124;BME280;65173;48.066;20.976;2023-07-29T09:10:57;99993.31;;;32.77;59.23
76124;BME280;65173;48.066;20.976;2023-07-29T09:14:00;99988.94;;;32.37;58.57
76124;BME280;65173;48.066;20.976;2023-07-29T09:17:03;99993.38;;;33.51;58.03
76124;BME280;65173;48.066;20.976;2023-07-29T09:20:09;99996.78;;;33.01;55.50
76124;BME280;65173;48.066;20.976;2023-07-29T09:23:12;99990.38;;;31.39;56.99
76124;BME280;65173;48.066;20.976;2023-07-29T09:26:22;99988.56;;;31.18;57.42
76124;BME280;65173;48.066;20.976;2023-07-29T09:29:28;99983.16;;;30.51;60.40
76124;BME280;65173;48.066;20.976;2023-07-29T09:32:30;99978.22;;;31.55;58.00
76124;BME280;65173;48.066;20.976;2023-07-29T09:35:34;99982.28;;;30.72;58.54
76124;BME280;65173;48.066;20.976;2023-07-29T09:38:39;99978.78;;;31.17;57.55
76124;BME280;65173;48.066;20.976;2023-07-29T09:41:47;99976.19;;;30.10;62.35
76124;BME280;65173;48.066;20.976;2023-07-29T09:44:51;99972.59;;;29.38;66.58
76124;BME280;65173;48.066;20.976;2023-07-29T09:47:54;99972.13;;;29.61;64.48
76124;BME280;65173;48.066;20.976;2023-07-29T09:50:59;99966.53;;;31.18;60.16
76124;BME280;65173;48.066;20.976;2023-07-29T09:54:02;99963.91;;;31.33;56.58
76124;BME280;65173;48.066;20.976;2023-07-29T09:57:06;99957.41;;;32.05;54.91
76124;BME280;65173;48.066;20.976;2023-07-29T10:00:13;99955.41;;;33.95;54.99
76124;BME280;65173;48.066;20.976;2023-07-29T10:03:15;99955.81;;;34.43;48.69
76124;BME280;65173;48.066;20.976;2023-07-29T10:06:19;99959.13;;;33.92;52.60
76124;BME280;65173;48.066;20.976;2023-07-29T10:09:22;99953.75;;;34.38;49.78
76124;BME280;65173;48.066;20.976;2023-07-29T10:12:25;99948.59;;;32.64;54.44
76124;BME280;65173;48.066;20.976;2023-07-29T10:15:29;99949.91;;;32.78;53.80
76124;BME280;65173;48.066;20.976;2023-07-29T10:18:34;99949.66;;;33.64;50.03
76124;BME280;65173;48.066;20.976;2023-07-29T10:21:38;99948.19;;;32.56;52.87
76124;BME280;65173;48.066;20.976;2023-07-29T10:24:42;99941.56;;;34.30;52.19
76124;BME280;65173;48.066;20.976;2023-07-29T10:27:52;99948.84;;;34.48;48.77
76124;BME280;65173;48.066;20.976;2023-07-29T10:30:56;99948.97;;;33.84;48.64
76124;BME280;65173;48.066;20.976;2023-07-29T10:33:59;99935.97;;;33.75;49.07
76124;BME280;65173;48.066;20.976;2023-07-29T10:37:03;99928.09;;;33.83;47.94
76124;BME280;65173;48.066;20.976;2023-07-29T10:40:07;99926.78;;;34.33;48.77
76124;BME280;65173;48.066;20.976;2023-07-29T10:43:11;99917.22;;;34.34;49.02
76124;BME280;65173;48.066;20.976;2023-07-29T10:46:20;99916.31;;;33.38;49.26
76124;BME280;65173;48.066;20.976;2023-07-29T10:49:23;99917.22;;;34.34;47.54
76124;BME280;65173;48.066;20.976;2023-07-29T10:52:30;99914.31;;;33.24;50.08
76124;BME280;65173;48.066;20.976;2023-07-29T10:55:35;99912.25;;;33.68;47.08
76124;BME280;65173;48.066;20.976;2023-07-29T10:58:42;99902.13;;;34.15;48.81
76124;BME280;65173;48.066;20.976;2023-07-29T11:01:57;99894.91;;;34.23;46.63
76124;BME280;65173;48.066;20.976;2023-07-29T11:05:08;99892.56;;;34.16;46.67
76124;BME280;65173;48.066;20.976;2023-07-29T11:08:28;99885.34;;;35.16;45.87
76124;BME280;65173;48.066;20.976;2023-07-29T11:11:31;99890.09;;;33.19;47.49
76124;BME280;65173;48.066;20.976;2023-07-29T11:14:35;99884.88;;;32.76;49.26
76124;BME280;65173;48.066;20.976;2023-07-29T11:17:49;99881.91;;;34.50;46.53
76124;BME280;65173;48.066;20.976;2023-07-29T11:20:53;99868.75;;;34.24;46.11
76124;BME280;65173;48.066;20.976;2023-07-29T11:23:56;99867.66;;;33.96;49.28
76124;BME280;65173;48.066;20.976;2023-07-29T11:27:00;99870.44;;;34.16;46.47
76124;BME280;65173;48.066;20.976;2023-07-29T11:30:07;99869.81;;;32.24;48.97
76124;BME280;65173;48.066;20.976;2023-07-29T11:33:10;99864.38;;;32.68;48.46
76124;BME280;65173;48.066;20.976;2023-07-29T11:36:18;99857.66;;;33.28;48.23
76124;BME280;65173;48.066;20.976;2023-07-29T11:39:22;99865.03;;;32.25;47.59
76124;BME280;65173;48.066;20.976;2023-07-29T11:42:26;99867.19;;;30.61;52.40
76124;BME280;65173;48.066;20.976;2023-07-29T11:45:29;99858.88;;;32.06;48.83
76124;BME280;65173;48.066;20.976;2023-07-29T11:48:54;99855.06;;;31.47;49.62
76124;BME280;65173;48.066;20.976;2023-07-29T11:51:56;99856.75;;;32.25;48.99
76124;BME280;65173;48.066;20.976;2023-07-29T11:55:01;99859.47;;;33.31;45.37
76124;BME280;65173;48.066;20.976;2023-07-29T11:58:04;99842.91;;;34.07;43.23
76124;BME280;65173;48.066;20.976;2023-07-29T12:01:07;99848.94;;;32.62;46.62
76124;BME280;65173;48.066;20.976;2023-07-29T12:04:10;99838.75;;;31.91;45.90
76124;BME280;65173;48.066;20.976;2023-07-29T12:07:17;99847.16;;;30.70;52.09
76124;BME280;65173;48.066;20.976;2023-07-29T12:10:21;99844.09;;;30.31;53.69
76124;BME280;65173;48.066;20.976;2023-07-29T12:13:24;99838.50;;;31.04;50.50
76124;BME280;65173;48.066;20.976;2023-07-29T12:16:28;99838.38;;;30.99;50.21
76124;BME280;65173;48.066;20.976;2023-07-29T12:19:38;99838.03;;;31.06;52.24
76124;BME280;65173;48.066;20.976;2023-07-29T12:22:41;99842.09;;;30.78;51.42
76124;BME280;65173;48.066;20.976;2023-07-29T12:25:44;99827.53;;;29.86;52.43
76124;BME280;65173;48.066;20.976;2023-07-29T12:28:47;99831.88;;;29.25;55.03
76124;BME280;65173;48.066;20.976;2023-07-29T12:31:57;99835.00;;;29.36;55.76
76124;BME280;65173;48.066;20.976;2023-07-29T12:35:01;99826.31;;;29.87;51.94
76124;BME280;65173;48.066;20.976;2023-07-29T12:38:03;99827.56;;;30.50;50.70
76124;BME280;65173;48.066;20.976;2023-07-29T12:41:06;99822.25;;;30.10;50.93
76124;BME280;65173;48.066;20.976;2023-07-29T12:44:09;99831.97;;;30.84;51.75
76124;BME280;65173;48.066;20.976;2023-07-29T12:47:12;99832.63;;;31.63;50.53
76124;BME280;65173;48.066;20.976;2023-07-29T12:50:14;99826.63;;;31.97;48.15
76124;BME280;65173;48.066;20.976;2023-07-29T12:53:17;99815.59;;;31.73;49.74
76124;BME280;65173;48.066;20.976;2023-07-29T12:56:20;99823.97;;;31.79;49.63
76124;BME280;65173;48.066;20.976;2023-07-29T12:59:23;99819.28;;;31.37;51.01
76124;BME280;65173;48.066;20.976;2023-07-29T13:02:25;99818.00;;;31.81;52.64
76124;BME280;65173;48.066;20.976;2023-07-29T13:05:29;99815.00;;;31.36;52.73
76124;BME280;65173;48.066;20.976;2023-07-29T13:08:31;99810.53;;;32.73;47.84
76124;BME280;65173;48.066;20.976;2023-07-29T13:11:34;99800.03;;;32.48;45.69
76124;BME280;65173;48.066;20.976;2023-07-29T13:14:37;99806.72;;;33.70;46.80
76124;BME280;65173;48.066;20.976;2023-07-29T13:17:40;99789.31;;;31.63;48.79
76124;BME280;65173;48.066;20.976;2023-07-29T13:20:44;99799.00;;;30.65;50.39
76124;BME280;65173;48.066;20.976;2023-07-29T13:23:46;99791.19;;;29.73;52.53
76124;BME280;65173;48.066;20.976;2023-07-29T13:26:49;99796.38;;;29.80;51.00
76124;BME280;65173;48.066;20.976;2023-07-29T13:29:52;99795.81;;;31.09;49.02
76124;BME280;65173;48.066;20.976;2023-07-29T13:32:55;99800.31;;;30.97;49.02
76124;BME280;65173;48.066;20.976;2023-07-29T13:35:58;99803.88;;;30.52;52.13
76124;BME280;65173;48.066;20.976;2023-07-29T13:39:00;99791.97;;;30.46;52.51
76124;BME280;65173;48.066;20.976;2023-07-29T13:42:03;99789.97;;;30.47;53.92
76124;BME280;65173;48.066;20.976;2023-07-29T13:45:06;99782.97;;;31.06;51.32
76124;BME280;65173;48.066;20.976;2023-07-29T13:48:09;99776.25;;;30.56;51.72
76124;BME280;65173;48.066;20.976;2023-07-29T13:51:11;99770.00;;;30.37;50.84
76124;BME280;65173;48.066;20.976;2023-07-29T13:54:14;99769.56;;;30.99;51.31
76124;BME280;65173;48.066;20.976;2023-07-29T13:57:17;99773.03;;;30.30;52.22
76124;BME280;65173;48.066;20.976;2023-07-29T14:00:20;99772.25;;;29.93;52.21
76124;BME280;65173;48.066;20.976;2023-07-29T14:03:23;99768.72;;;30.65;48.50
76124;BME280;65173;48.066;20.976;2023-07-29T14:06:26;99770.28;;;30.30;51.29
76124;BME280;65173;48.066;20.976;2023-07-29T14:09:46;99776.09;;;30.14;51.38
76124;BME280;65173;48.066;20.976;2023-07-29T14:12:49;99764.63;;;29.79;51.42
76124;BME280;65173;48.066;20.976;2023-07-29T14:15:52;99767.50;;;30.66;51.46
76124;BME280;65173;48.066;20.976;2023-07-29T14:18:55;99767.50;;;31.74;47.71
76124;BME280;65173;48.066;20.976;2023-07-29T14:21:58;99773.94;;;30.54;47.94
76124;BME280;65173;48.066;20.976;2023-07-29T14:25:00;99780.66;;;30.71;47.33
76124;BME280;65173;48.066;20.976;2023-07-29T14:28:03;99784.03;;;31.08;47.88
76124;BME280;65173;48.066;20.976;2023-07-29T14:31:06;99776.69;;;30.54;56.60
76124;BME280;65173;48.066;20.976;2023-07-29T14:34:09;99776.38;;;30.70;56.69
76124;BME280;65173;48.066;20.976;2023-07-29T14:37:12;99777.00;;;29.92;58.56
76124;BME280;65173;48.066;20.976;2023-07-29T14:40:15;99770.91;;;29.88;59.75
76124;BME280;65173;48.066;20.976;2023-07-29T14:43:18;99770.63;;;30.04;58.67
76124;BME280;65173;48.066;20.976;2023-07-29T14:46:20;99775.00;;;29.93;60.60
76124;BME280;65173;48.066;20.976;2023-07-29T14:49:23;99783.00;;;30.27;59.37
76124;BME280;65173;48.066;20.976;2023-07-29T14:52:26;99765.06;;;29.77;61.70
76124;BME280;65173;48.066;20.976;2023-07-29T14:55:29;99775.34;;;30.04;60.99
76124;BME280;65173;48.066;20.976;2023-07-29T14:58:32;99773.47;;;30.74;61.00
76124;BME280;65173;48.066;20.976;2023-07-29T15:01:35;99763.06;;;30.69;59.05
76124;BME280;65173;48.066;20.976;2023-07-29T15:04:37;99770.56;;;29.68;61.66
76124;BME280;65173;48.066;20.976;2023-07-29T15:07:40;99773.31;;;30.50;59.94
76124;BME280;65173;48.066;20.976;2023-07-29T15:10:47;99765.56;;;30.30;59.73
76124;BME280;65173;48.066;20.976;2023-07-29T15:13:50;99768.59;;;30.51;60.20
76124;BME280;65173;48.066;20.976;2023-07-29T15:16:53;99771.66;;;30.62;59.86
76124;BME280;65173;48.066;20.976;2023-07-29T15:19:56;99766.13;;;30.71;57.60
76124;BME280;65173;48.066;20.976;2023-07-29T15:22:59;99769.88;;;30.92;56.33
76124;BME280;65173;48.066;20.976;2023-07-29T15:26:02;99771.38;;;31.02;57.81
76124;BME280;65173;48.066;20.976;2023-07-29T15:29:04;99772.31;;;30.99;58.71
76124;BME280;65173;48.066;20.976;2023-07-29T15:32:09;99770.91;;;31.03;58.40
76124;BME280;65173;48.066;20.976;2023-07-29T15:35:12;99765.88;;;30.60;59.94
76124;BME280;65173;48.066;20.976;2023-07-29T15:38:15;99773.66;;;30.16;58.49
76124;BME280;65173;48.066;20.976;2023-07-29T15:41:17;99782.50;;;29.83;59.23
76124;BME280;65173;48.066;20.976;2023-07-29T15:44:20;99782.47;;;29.74;58.79
76124;BME280;65173;48.066;20.976;2023-07-29T15:47:22;99791.31;;;29.20;60.87
76124;BME280;65173;48.066;20.976;2023-07-29T15:50:25;99784.50;;;29.02;62.43
76124;BME280;65173;48.066;20.976;2023-07-29T15:53:28;99786.13;;;28.91;64.55
76124;BME280;65173;48.066;20.976;2023-07-29T15:56:30;99793.78;;;28.74;64.29
76124;BME280;65173;48.066;20.976;2023-07-29T15:59:33;99787.00;;;29.10;65.31